createdAt,value
2018-03-11T00:00:19.811Z,35.63
2018-03-11T00:02:46.728Z,37.63
2018-03-11T00:05:13.768Z,33.07
2018-03-11T00:07:40.800Z,34.80
2018-03-11T00:10:07.950Z,39.43
2018-03-11T00:12:35.270Z,35.57
2018-03-11T00:15:02.178Z,37.53
2018-03-11T00:17:29.102Z,40.30
2018-03-11T00:19:56.004Z,35.40
2018-03-11T00:22:23.000Z,35.53
2018-03-11T00:24:50.044Z,40.50
2018-03-11T00:27:16.976Z,40.97
2018-03-11T00:29:43.915Z,37.47
2018-03-11T00:32:10.827Z,35.20
2018-03-11T00:34:37.737Z,39.80
2018-03-11T00:37:04.818Z,35.93
2018-03-11T00:39:31.670Z,37.93
2018-03-11T00:41:58.584Z,37.77
2018-03-11T00:44:25.643Z,39.63
2018-03-11T00:46:52.560Z,43.97
2018-03-11T00:49:19.524Z,37.63
2018-03-11T00:51:46.504Z,42.63
2018-03-11T00:54:13.434Z,40.80
2018-03-11T00:56:40.454Z,40.63
2018-03-11T00:59:07.420Z,43.53
2018-03-11T01:01:34.479Z,40.50
2018-03-11T01:04:01.482Z,46.13
2018-03-11T01:06:28.424Z,40.40
2018-03-11T01:08:55.332Z,41.07
2018-03-11T01:11:22.373Z,38.23
2018-03-11T01:13:49.424Z,40.23
2018-03-11T01:16:16.510Z,37.70
2018-03-11T01:18:43.590Z,46.53
2018-03-11T01:21:10.615Z,48.10
2018-03-11T01:23:37.518Z,41.53
2018-03-11T01:26:04.497Z,44.30
2018-03-11T01:28:31.483Z,42.30
2018-03-11T01:30:58.535Z,44.83
2018-03-11T01:33:25.463Z,45.23
2018-03-11T01:35:52.528Z,43.70
2018-03-11T01:38:19.568Z,42.03
2018-03-11T01:40:46.933Z,39.57
2018-03-11T01:43:13.939Z,48.50
2018-03-11T01:45:40.829Z,46.97
2018-03-11T01:48:07.730Z,44.30
2018-03-11T01:50:34.743Z,47.43
2018-03-11T01:53:07.722Z,48.70
2018-03-11T01:55:34.801Z,49.33
2018-03-11T01:58:01.712Z,47.77
2018-03-11T02:00:28.719Z,48.40
2018-03-11T02:02:55.673Z,46.30
2018-03-11T02:05:22.670Z,50.93
2018-03-11T02:07:49.573Z,56.70
2018-03-11T02:10:16.579Z,51.50
2018-03-11T02:12:43.714Z,50.07
2018-03-11T02:15:10.658Z,49.07
2018-03-11T02:17:37.715Z,51.00
2018-03-11T02:20:04.678Z,50.90
2018-03-11T02:22:32.972Z,51.57
2018-03-11T02:24:59.913Z,49.13
2018-03-11T02:27:26.907Z,49.37
2018-03-11T02:29:53.729Z,49.67
2018-03-11T02:32:20.738Z,50.83
2018-03-11T02:34:47.795Z,45.43
2018-03-11T02:37:14.718Z,50.77
2018-03-11T02:39:41.622Z,47.13
2018-03-11T02:42:08.610Z,49.93
2018-03-11T02:44:35.714Z,50.33
2018-03-11T02:47:02.840Z,46.13
2018-03-11T02:49:29.722Z,49.17
2018-03-11T02:51:56.838Z,54.30
2018-03-11T02:54:23.851Z,53.27
2018-03-11T02:56:50.774Z,48.37
2018-03-11T02:59:17.793Z,55.17
2018-03-11T03:01:44.677Z,49.70
2018-03-11T03:04:11.537Z,49.97
2018-03-11T03:06:38.521Z,45.17
2018-03-11T03:09:05.534Z,49.80
2018-03-11T03:11:32.399Z,46.63
2018-03-11T03:13:59.339Z,58.53
2018-03-11T03:16:26.399Z,54.20
2018-03-11T03:18:53.390Z,49.13
2018-03-11T03:21:20.848Z,49.90
2018-03-11T03:23:47.938Z,48.83
2018-03-11T03:26:15.076Z,51.60
2018-03-11T03:28:42.183Z,51.00
2018-03-11T03:31:09.266Z,48.90
2018-03-11T03:33:36.424Z,50.40
2018-03-11T03:36:03.711Z,52.07
2018-03-11T03:38:30.720Z,53.50
2018-03-11T03:40:57.754Z,51.97
2018-03-11T03:43:24.761Z,50.53
2018-03-11T03:45:51.813Z,49.60
2018-03-11T03:48:18.773Z,52.67
2018-03-11T03:50:45.974Z,52.53
2018-03-11T03:53:12.831Z,52.73
2018-03-11T03:55:39.728Z,59.17
2018-03-11T03:58:06.612Z,56.97
2018-03-11T04:00:33.668Z,58.47
2018-03-11T04:03:00.612Z,51.97
2018-03-11T04:05:27.572Z,57.10
2018-03-11T04:07:54.484Z,57.90
2018-03-11T04:10:21.478Z,49.37
2018-03-11T04:12:48.541Z,49.77
2018-03-11T04:15:15.508Z,47.97
2018-03-11T04:17:42.369Z,51.47
2018-03-11T04:20:09.270Z,44.80
2018-03-11T04:22:36.372Z,47.07
2018-03-11T04:25:03.230Z,51.17
2018-03-11T04:27:30.166Z,47.90
2018-03-11T04:29:57.175Z,51.00
2018-03-11T04:32:24.029Z,48.90
2018-03-11T04:34:50.896Z,47.33
2018-03-11T04:37:17.824Z,52.20
2018-03-11T04:39:44.865Z,46.90
2018-03-11T04:42:11.811Z,50.43
2018-03-11T04:44:38.675Z,50.77
2018-03-11T04:47:05.619Z,50.87
2018-03-11T04:49:32.609Z,56.00
2018-03-11T04:51:59.676Z,51.77
2018-03-11T04:54:26.609Z,47.97
2018-03-11T04:56:53.542Z,52.90
2018-03-11T04:59:20.633Z,52.90
2018-03-11T05:01:47.522Z,50.03
2018-03-11T05:04:14.383Z,50.80
2018-03-11T05:06:41.579Z,48.73
2018-03-11T05:09:08.510Z,49.73
2018-03-11T05:11:35.627Z,47.90
2018-03-11T05:14:02.536Z,50.20
2018-03-11T05:16:29.675Z,52.20
2018-03-11T05:18:56.631Z,49.87
2018-03-11T05:21:23.790Z,50.20
2018-03-11T05:23:50.778Z,54.23
2018-03-11T05:26:17.958Z,51.73
2018-03-11T05:28:44.957Z,51.33
2018-03-11T05:31:12.139Z,54.33
2018-03-11T05:33:39.737Z,51.27
2018-03-11T05:36:07.435Z,58.97
2018-03-11T05:38:34.489Z,54.10
2018-03-11T05:41:01.663Z,58.10
2018-03-11T05:43:28.591Z,55.57
2018-03-11T05:45:57.153Z,57.20
2018-03-11T05:48:24.044Z,60.10
2018-03-11T05:50:51.239Z,63.37
2018-03-11T05:53:18.180Z,59.73
2018-03-11T05:55:45.080Z,51.87
2018-03-11T05:58:12.054Z,48.57
2018-03-11T06:00:39.026Z,49.73
2018-03-11T06:03:05.983Z,49.97
2018-03-11T06:05:32.990Z,53.57
2018-03-11T06:07:59.868Z,41.67
2018-03-11T06:10:26.756Z,45.90
2018-03-11T06:12:53.711Z,48.27
2018-03-11T06:15:21.018Z,49.80
2018-03-11T06:17:47.993Z,50.57
2018-03-11T06:20:15.007Z,45.87
2018-03-11T06:22:41.861Z,43.50
2018-03-11T06:25:08.878Z,45.03
2018-03-11T06:27:36.041Z,43.53
2018-03-11T06:30:02.939Z,42.83
2018-03-11T06:32:29.864Z,39.60
2018-03-11T06:34:56.809Z,41.10
2018-03-11T06:37:23.784Z,37.80
2018-03-11T06:39:50.728Z,36.33
2018-03-11T06:42:17.645Z,42.10
2018-03-11T06:44:44.636Z,39.57
2018-03-11T06:47:11.570Z,38.40
2018-03-11T06:49:38.488Z,32.27
2018-03-11T06:52:05.696Z,29.27
2018-03-11T06:54:32.674Z,26.53
2018-03-11T06:56:59.637Z,23.83
2018-03-11T06:59:26.509Z,20.83
2018-03-11T07:01:53.470Z,20.63
2018-03-11T07:04:20.367Z,20.30
2018-03-11T07:06:47.192Z,20.57
2018-03-11T07:09:14.105Z,22.97
2018-03-11T07:11:41.065Z,22.73
2018-03-11T07:14:07.944Z,22.37
2018-03-11T07:16:35.049Z,22.30
2018-03-11T07:19:01.967Z,24.70
2018-03-11T07:21:28.847Z,22.97
2018-03-11T07:23:55.822Z,26.40
2018-03-11T07:26:22.695Z,27.80
2018-03-11T07:28:49.696Z,22.80
2018-03-11T07:31:16.933Z,23.67
2018-03-11T07:33:43.833Z,19.30
2018-03-11T07:36:10.906Z,18.10
2018-03-11T07:38:37.743Z,19.83
2018-03-11T07:41:04.950Z,19.00
2018-03-11T07:43:31.857Z,17.20
2018-03-11T07:45:58.873Z,20.43
2018-03-11T07:48:25.855Z,19.17
2018-03-11T07:50:52.933Z,16.90
2018-03-11T07:53:20.589Z,16.87
2018-03-11T07:55:47.805Z,15.33
2018-03-11T07:58:14.780Z,16.60
2018-03-11T08:00:41.832Z,15.00
2018-03-11T08:03:08.835Z,16.17
2018-03-11T08:05:35.804Z,14.90
2018-03-11T08:08:02.714Z,18.50
2018-03-11T08:10:29.587Z,15.80
2018-03-11T08:12:56.406Z,16.20
2018-03-11T08:15:23.294Z,14.87
2018-03-11T08:17:50.599Z,14.83
2018-03-11T08:20:17.510Z,13.80
2018-03-11T08:22:44.470Z,17.33
2018-03-11T08:25:11.371Z,13.43
2018-03-11T08:27:38.223Z,15.80
2018-03-11T08:30:05.170Z,17.60
2018-03-11T08:32:32.078Z,17.13
2018-03-11T08:34:58.941Z,17.53
2018-03-11T08:37:25.808Z,15.63
2018-03-11T08:39:52.707Z,14.57
2018-03-11T08:42:19.634Z,18.83
2018-03-11T08:44:46.666Z,14.23
2018-03-11T08:47:13.554Z,12.73
2018-03-11T08:49:40.522Z,13.30
2018-03-11T08:52:07.475Z,16.73
2018-03-11T08:54:34.347Z,14.17
2018-03-11T08:57:01.319Z,17.03
2018-03-11T08:59:28.524Z,17.57
2018-03-11T09:01:55.704Z,16.87
2018-03-11T09:04:22.556Z,15.23
2018-03-11T09:06:49.503Z,12.43
2018-03-11T09:09:16.432Z,11.93
2018-03-11T09:11:43.336Z,11.57
2018-03-11T09:14:11.153Z,11.57
2018-03-11T09:16:38.151Z,12.90
2018-03-11T09:19:05.193Z,10.03
2018-03-11T09:21:32.155Z,9.77
2018-03-11T09:23:59.084Z,7.60
2018-03-11T09:26:26.381Z,10.27
2018-03-11T09:28:53.258Z,9.87
2018-03-11T09:31:20.150Z,9.07
2018-03-11T09:33:46.965Z,8.83
2018-03-11T09:36:13.866Z,11.07
2018-03-11T09:38:40.724Z,7.97
2018-03-11T09:41:07.873Z,8.33
2018-03-11T09:43:34.740Z,7.90
2018-03-11T09:46:01.692Z,8.77
2018-03-11T09:48:28.547Z,9.70
2018-03-11T09:50:56.055Z,7.70
2018-03-11T09:53:22.942Z,9.03
2018-03-11T09:55:50.047Z,9.50
2018-03-11T09:58:16.842Z,10.27
2018-03-11T10:00:43.819Z,12.03
2018-03-11T10:03:10.753Z,11.40
2018-03-11T10:05:37.702Z,14.73
2018-03-11T10:08:04.747Z,11.60
2018-03-11T10:10:31.909Z,8.67
2018-03-11T10:12:58.808Z,10.13
2018-03-11T10:15:25.703Z,11.07
2018-03-11T10:17:52.600Z,9.33
2018-03-11T10:20:19.451Z,11.07
2018-03-11T10:22:46.289Z,9.40
2018-03-11T10:25:13.144Z,10.23
2018-03-11T10:27:39.954Z,10.23
2018-03-11T10:30:06.964Z,10.93
2018-03-11T10:32:33.710Z,10.37
2018-03-11T10:35:00.538Z,10.07
2018-03-11T10:37:27.425Z,11.50
2018-03-11T10:39:54.229Z,11.17
2018-03-11T10:42:21.096Z,11.60
2018-03-11T10:44:48.004Z,10.57
2018-03-11T10:47:14.921Z,10.30
2018-03-11T10:49:41.781Z,9.43
2018-03-11T10:52:08.631Z,8.93
2018-03-11T10:54:40.508Z,13.10
2018-03-11T10:57:07.354Z,10.53
2018-03-11T10:59:34.316Z,10.17
2018-03-11T11:02:01.232Z,10.93
2018-03-11T11:04:34.207Z,9.60
2018-03-11T11:07:01.133Z,10.33
2018-03-11T11:09:28.097Z,10.30
2018-03-11T11:11:55.087Z,10.90
2018-03-11T11:14:21.986Z,9.60
2018-03-11T11:16:51.838Z,9.17
2018-03-11T11:19:20.324Z,12.47
2018-03-11T11:21:48.390Z,12.03
2018-03-11T11:24:16.436Z,10.13
2018-03-11T11:26:43.805Z,11.33
2018-03-11T11:29:12.189Z,8.93
2018-03-11T11:31:39.266Z,10.57
2018-03-11T11:34:08.376Z,9.97
2018-03-11T11:36:36.377Z,11.40
2018-03-11T11:39:04.566Z,11.13
2018-03-11T11:41:32.772Z,11.03
2018-03-11T11:44:00.072Z,10.20
2018-03-11T11:46:27.288Z,10.77
2018-03-11T11:48:54.366Z,11.90
2018-03-11T11:51:21.431Z,10.00
2018-03-11T11:53:48.563Z,13.53
2018-03-11T11:56:15.592Z,12.37
2018-03-11T11:58:42.461Z,11.00
2018-03-11T12:01:09.548Z,9.97
2018-03-11T12:03:37.043Z,10.33
2018-03-11T12:06:03.960Z,11.07
2018-03-11T12:08:30.914Z,11.70
2018-03-11T12:10:57.983Z,10.60
2018-03-11T12:13:24.919Z,13.93
2018-03-11T12:15:52.000Z,12.60
2018-03-11T12:18:18.894Z,10.87
2018-03-11T12:20:46.352Z,15.07
2018-03-11T12:23:13.643Z,10.70
2018-03-11T12:25:41.289Z,11.60
2018-03-11T12:28:08.467Z,13.77
2018-03-11T12:30:35.911Z,12.23
2018-03-11T12:33:02.968Z,11.57
2018-03-11T12:35:29.872Z,10.80
2018-03-11T12:37:57.027Z,9.50
2018-03-11T12:40:23.975Z,13.13
2018-03-11T12:42:51.358Z,11.80
2018-03-11T12:45:18.572Z,12.93
2018-03-11T12:47:45.621Z,11.23
2018-03-11T12:50:12.926Z,13.77
2018-03-11T12:52:40.058Z,11.23
2018-03-11T12:55:07.089Z,13.27
2018-03-11T12:57:34.145Z,15.23
2018-03-11T13:00:01.020Z,12.43
2018-03-11T13:02:27.987Z,13.07
2018-03-11T13:04:54.987Z,12.40
2018-03-11T13:07:22.049Z,10.03
2018-03-11T13:09:50.449Z,9.50
2018-03-11T13:12:17.625Z,11.73
2018-03-11T13:14:44.533Z,12.73
2018-03-11T13:17:11.930Z,9.57
2018-03-11T13:19:39.184Z,10.60
2018-03-11T13:22:06.211Z,11.27
2018-03-11T13:24:33.171Z,14.90
2018-03-11T13:27:00.218Z,8.87
2018-03-11T13:29:27.268Z,9.60
2018-03-11T13:32:00.581Z,11.20
2018-03-11T13:34:29.457Z,9.50
2018-03-11T13:36:56.803Z,10.37
2018-03-11T13:39:29.698Z,9.30
2018-03-11T13:41:56.758Z,10.90
2018-03-11T13:44:24.877Z,8.77
2018-03-11T13:46:57.928Z,9.10
2018-03-11T13:49:25.096Z,8.60
2018-03-11T13:51:58.351Z,9.83
2018-03-11T13:54:25.897Z,10.90
2018-03-11T13:56:58.637Z,10.43
2018-03-11T13:59:26.400Z,11.33
2018-03-11T14:01:53.257Z,10.43
2018-03-11T14:04:20.273Z,9.80
2018-03-11T14:06:47.368Z,9.53
2018-03-11T14:09:14.225Z,8.73
2018-03-11T14:11:41.556Z,10.37
2018-03-11T14:14:08.446Z,9.57
2018-03-11T14:16:35.390Z,10.20
2018-03-11T14:19:02.370Z,10.10
2018-03-11T14:21:29.627Z,7.93
2018-03-11T14:23:56.656Z,10.03
2018-03-11T14:26:23.997Z,8.67
2018-03-11T14:28:51.087Z,9.37
2018-03-11T14:31:18.141Z,8.37
2018-03-11T14:33:45.828Z,8.10
2018-03-11T14:36:13.145Z,7.50
2018-03-11T14:38:40.064Z,8.33
2018-03-11T14:41:07.188Z,8.10
2018-03-11T14:43:34.021Z,8.00
2018-03-11T14:46:01.114Z,7.47
2018-03-11T14:48:27.965Z,8.00
2018-03-11T14:50:55.271Z,6.33
2018-03-11T14:53:22.222Z,8.87
2018-03-11T14:55:49.314Z,9.30
2018-03-11T14:58:16.254Z,7.60
2018-03-11T15:00:43.285Z,8.00
2018-03-11T15:03:10.324Z,9.50
2018-03-11T15:05:37.636Z,9.13
2018-03-11T15:08:04.908Z,9.03
2018-03-11T15:10:31.873Z,12.10
2018-03-11T15:12:59.642Z,10.83
2018-03-11T15:15:27.604Z,10.53
2018-03-11T15:17:55.830Z,11.03
2018-03-11T15:20:22.781Z,10.00
2018-03-11T15:22:51.086Z,10.43
2018-03-11T15:25:18.268Z,10.13
2018-03-11T15:27:45.743Z,11.17
2018-03-11T15:30:14.818Z,11.63
2018-03-11T15:32:41.803Z,11.90
2018-03-11T15:35:13.732Z,10.73
2018-03-11T15:37:41.938Z,11.10
2018-03-11T15:40:10.044Z,9.93
2018-03-11T15:42:37.498Z,11.77
2018-03-11T15:45:04.637Z,11.20
2018-03-11T15:47:31.858Z,12.33
2018-03-11T15:49:59.089Z,10.23
2018-03-11T15:52:26.447Z,10.03
2018-03-11T15:54:53.514Z,12.50
2018-03-11T15:57:20.775Z,10.20
2018-03-11T15:59:47.767Z,11.90
2018-03-11T16:02:17.929Z,11.60
2018-03-11T16:04:46.666Z,8.77
2018-03-11T16:07:16.646Z,9.77
2018-03-11T16:09:45.842Z,5.43
2018-03-11T16:12:13.466Z,5.50
2018-03-11T16:14:42.155Z,4.63
2018-03-11T16:17:09.725Z,4.37
2018-03-11T16:19:36.678Z,2.23
2018-03-11T16:22:03.819Z,1.90
2018-03-11T16:24:30.864Z,2.10
2018-03-11T16:26:59.020Z,2.47
2018-03-11T16:29:26.037Z,1.83
2018-03-11T16:31:53.079Z,1.40
2018-03-11T16:34:20.109Z,1.70
2018-03-11T16:36:47.408Z,2.00
2018-03-11T16:39:14.502Z,1.60
2018-03-11T16:41:41.484Z,2.90
2018-03-11T16:44:08.446Z,1.10
2018-03-11T16:46:35.737Z,2.43
2018-03-11T16:49:02.720Z,2.83
2018-03-11T16:51:29.947Z,2.60
2018-03-11T16:53:56.972Z,2.13
2018-03-11T16:56:24.316Z,1.90
2018-03-11T16:58:51.392Z,2.83
2018-03-11T17:01:18.553Z,2.30
2018-03-11T17:03:45.837Z,2.77
2018-03-11T17:06:14.065Z,2.33
2018-03-11T17:08:41.159Z,2.50
2018-03-11T17:11:08.827Z,3.00
2018-03-11T17:13:35.731Z,2.60
2018-03-11T17:16:02.820Z,3.17
2018-03-11T17:18:29.889Z,4.27
2018-03-11T17:20:56.893Z,4.63
2018-03-11T17:23:23.825Z,3.53
2018-03-11T17:25:50.892Z,3.23
2018-03-11T17:28:17.818Z,1.77
2018-03-11T17:30:46.348Z,3.17
2018-03-11T17:33:13.209Z,2.50
2018-03-11T17:35:40.149Z,1.97
2018-03-11T17:38:07.131Z,3.03
2018-03-11T17:40:36.572Z,5.47
2018-03-11T17:43:03.811Z,1.77
2018-03-11T17:45:31.468Z,2.83
2018-03-11T17:47:59.160Z,2.23
2018-03-11T17:50:27.461Z,2.53
2018-03-11T17:53:01.310Z,4.70
2018-03-11T17:55:29.765Z,2.33
2018-03-11T17:57:57.097Z,3.10
2018-03-11T18:00:25.540Z,2.17
2018-03-11T18:02:53.281Z,3.10
2018-03-11T18:05:20.338Z,2.87
2018-03-11T18:07:47.359Z,2.63
2018-03-11T18:10:14.282Z,2.33
2018-03-11T18:12:41.714Z,3.43
2018-03-11T18:15:08.716Z,2.30
2018-03-11T18:17:36.034Z,2.43
2018-03-11T18:20:03.028Z,2.40
2018-03-11T18:22:30.456Z,2.27
2018-03-11T18:24:57.376Z,2.97
2018-03-11T18:27:24.269Z,2.27
2018-03-11T18:29:51.358Z,2.63
2018-03-11T18:32:18.294Z,3.27
2018-03-11T18:34:45.346Z,4.17
2018-03-11T18:37:12.237Z,4.73
2018-03-11T18:39:39.148Z,2.57
2018-03-11T18:42:06.030Z,2.73
2018-03-11T18:44:32.907Z,5.77
2018-03-11T18:46:59.963Z,3.70
2018-03-11T18:49:27.066Z,3.67
2018-03-11T18:51:53.975Z,2.83
2018-03-11T18:54:21.009Z,3.77
2018-03-11T18:56:47.939Z,3.00
2018-03-11T18:59:14.892Z,2.70
2018-03-11T19:01:41.825Z,2.73
2018-03-11T19:04:08.648Z,2.77
2018-03-11T19:06:35.744Z,2.93
2018-03-11T19:09:02.690Z,4.20
2018-03-11T19:11:29.826Z,5.23
2018-03-11T19:13:56.760Z,3.37
2018-03-11T19:16:23.855Z,3.10
2018-03-11T19:18:50.694Z,4.93
2018-03-11T19:21:17.692Z,3.37
2018-03-11T19:23:44.627Z,5.10
2018-03-11T19:26:11.542Z,3.47
2018-03-11T19:28:38.413Z,1.93
2018-03-11T19:31:05.319Z,2.87
2018-03-11T19:33:32.290Z,2.57
2018-03-11T19:35:59.258Z,3.27
2018-03-11T19:38:26.204Z,3.10
2018-03-11T19:40:53.135Z,2.33
2018-03-11T19:43:20.077Z,3.93
2018-03-11T19:45:47.078Z,2.40
2018-03-11T19:48:14.158Z,2.77
2018-03-11T19:50:41.094Z,1.87
2018-03-11T19:53:07.948Z,2.70
2018-03-11T19:55:34.808Z,2.73
2018-03-11T19:58:01.709Z,2.23
2018-03-11T20:00:28.573Z,3.27
2018-03-11T20:02:55.745Z,2.73
2018-03-11T20:05:22.667Z,2.13
2018-03-11T20:07:49.840Z,3.23
2018-03-11T20:10:16.791Z,1.83
2018-03-11T20:12:43.759Z,2.23
2018-03-11T20:15:10.765Z,2.17
2018-03-11T20:17:37.753Z,2.67
2018-03-11T20:20:04.877Z,3.17
2018-03-11T20:22:31.879Z,1.97
2018-03-11T20:24:58.737Z,4.83
2018-03-11T20:27:25.806Z,2.33
2018-03-11T20:29:53.244Z,4.00
2018-03-11T20:32:20.361Z,2.80
2018-03-11T20:34:47.829Z,2.50
2018-03-11T20:37:14.878Z,4.03
2018-03-11T20:39:42.277Z,2.40
2018-03-11T20:42:09.246Z,4.23
2018-03-11T20:44:36.238Z,2.97
2018-03-11T20:47:03.291Z,2.60
2018-03-11T20:49:30.252Z,5.30
2018-03-11T20:51:57.200Z,3.00
2018-03-11T20:54:24.205Z,3.83
2018-03-11T20:56:51.064Z,2.80
2018-03-11T20:59:18.169Z,3.63
2018-03-11T21:01:45.399Z,3.83
2018-03-11T21:04:12.275Z,4.00
2018-03-11T21:06:39.237Z,5.33
2018-03-11T21:09:06.219Z,6.67
2018-03-11T21:11:33.258Z,3.73
2018-03-11T21:14:00.137Z,4.63
2018-03-11T21:16:27.211Z,3.90
2018-03-11T21:18:54.401Z,4.93
2018-03-11T21:21:21.407Z,5.60
2018-03-11T21:23:48.375Z,4.67
2018-03-11T21:26:15.413Z,3.90
2018-03-11T21:28:42.355Z,7.83
2018-03-11T21:31:09.235Z,4.30
2018-03-11T21:33:36.299Z,5.70
2018-03-11T21:36:03.532Z,9.10
2018-03-11T21:38:30.586Z,6.00
2018-03-11T21:40:57.614Z,3.33
2018-03-11T21:43:24.475Z,3.23
2018-03-11T21:45:51.500Z,5.73
2018-03-11T21:48:18.538Z,3.80
2018-03-11T21:50:45.553Z,3.77
2018-03-11T21:53:12.442Z,4.63
2018-03-11T21:55:39.284Z,6.67
2018-03-11T21:58:06.557Z,4.37
2018-03-11T22:00:33.586Z,4.50
2018-03-11T22:03:00.455Z,3.90
2018-03-11T22:05:27.476Z,5.60
2018-03-11T22:07:54.479Z,4.53
2018-03-11T22:10:21.461Z,3.73
2018-03-11T22:12:48.470Z,7.00
2018-03-11T22:15:15.401Z,3.77
2018-03-11T22:17:42.463Z,4.90
2018-03-11T22:20:09.331Z,6.97
2018-03-11T22:22:36.266Z,8.00
2018-03-11T22:25:03.252Z,4.60
2018-03-11T22:27:30.236Z,6.40
2018-03-11T22:29:57.128Z,7.47
2018-03-11T22:32:24.119Z,4.77
2018-03-11T22:34:51.066Z,5.60
2018-03-11T22:37:17.981Z,6.60
2018-03-11T22:39:45.012Z,6.90
2018-03-11T22:42:12.130Z,6.47
2018-03-11T22:44:39.083Z,10.20
2018-03-11T22:47:06.146Z,6.10
2018-03-11T22:49:33.115Z,7.20
2018-03-11T22:52:00.237Z,7.50
2018-03-11T22:54:27.078Z,8.67
2018-03-11T22:56:54.138Z,9.63
2018-03-11T22:59:21.045Z,7.00
2018-03-11T23:01:47.992Z,5.43
2018-03-11T23:04:15.004Z,8.27
2018-03-11T23:06:41.978Z,5.90
2018-03-11T23:09:08.898Z,7.70
2018-03-11T23:11:36.106Z,8.60
2018-03-11T23:14:03.325Z,6.57
2018-03-11T23:16:31.086Z,7.37
2018-03-11T23:19:04.159Z,10.23
2018-03-11T23:21:31.259Z,7.33
2018-03-11T23:23:58.314Z,7.17
2018-03-11T23:26:25.526Z,7.17
2018-03-11T23:28:52.699Z,7.90
2018-03-11T23:31:19.760Z,6.57
2018-03-11T23:33:46.857Z,9.20
2018-03-11T23:36:14.043Z,8.10
2018-03-11T23:38:41.001Z,6.00
2018-03-11T23:41:08.127Z,7.40
2018-03-11T23:43:35.251Z,8.07
2018-03-11T23:46:02.769Z,6.50
2018-03-11T23:48:30.113Z,5.50
2018-03-11T23:50:57.228Z,6.73
2018-03-11T23:53:24.152Z,8.23
2018-03-11T23:55:51.612Z,7.70
2018-03-11T23:58:18.748Z,9.93
